Time;durP1;ratioP1;P1;durP2;ratioP2;P2;SDS_P1;SDS_P2;PMS_P1;PMS_P2;Temp;Humidity;BMP_temperature;BMP_pressure;BME280_temperature;BME280_humidity;BME280_pressure;Samples;Min_cycle;Max_cycle;Signal;HPM_P1;HPM_P2
2022/01/17 00:00:25;;;;;;;13.07;2.03;;;;;;;;;;5129698;27;20047;-85
2022/01/17 00:02:52;;;;;;;20.45;2.13;;;;;;;;;;5128443;27;20108;-83
2022/01/17 00:05:18;;;;;;;13.52;1.83;;;;;;;;;;5128914;27;20108;-85
2022/01/17 00:07:45;;;;;;;14.43;2.10;;;;;;;;;;5141823;27;20097;-85
2022/01/17 00:10:12;;;;;;;14.27;2.08;;;;;;;;;;5129027;27;20090;-85
2022/01/17 00:12:44;;;;;;;20.48;2.25;;;;;;;;;;5120087;27;20047;-85
2022/01/17 00:15:30;;;;;;;17.92;2.22;;;;;;;;;;5122089;27;20108;-84
2022/01/17 00:18:25;;;;;;;19.08;2.30;;;;;;;;;;5130428;27;20051;-85
2022/01/17 00:20:46;;;;;;;10.65;1.83;;;;;;;;;;5151695;27;20085;-84
2022/01/17 00:23:14;;;;;;;12.65;2.28;;;;;;;;;;5132156;27;20564;-85
2022/01/17 00:25:43;;;;;;;12.27;1.83;;;;;;;;;;5143563;27;20914;-83
2022/01/17 00:28:09;;;;;;;11.13;2.53;;;;;;;;;;5133709;27;20600;-85
2022/01/17 00:30:35;;;;;;;10.98;1.65;;;;;;;;;;5130084;27;20079;-85
2022/01/17 00:33:02;;;;;;;11.55;1.25;;;;;;;;;;5132853;27;20146;-84
2022/01/17 00:35:28;;;;;;;9.60;1.83;;;;;;;;;;5147754;27;20104;-85
2022/01/17 00:37:55;;;;;;;13.68;2.03;;;;;;;;;;5130828;27;20087;-85
2022/01/17 00:40:22;;;;;;;8.00;1.30;;;;;;;;;;5131844;27;20047;-82
2022/01/17 00:42:49;;;;;;;12.32;1.90;;;;;;;;;;5139242;27;20051;-84
2022/01/17 00:45:15;;;;;;;10.30;2.17;;;;;;;;;;5132346;27;20334;-85
2022/01/17 00:47:42;;;;;;;20.67;2.38;;;;;;;;;;5128621;27;20083;-84
2022/01/17 00:50:15;;;;;;;9.88;1.55;;;;;;;;;;5132979;27;20100;-85
2022/01/17 00:52:41;;;;;;;10.90;1.40;;;;;;;;;;5132927;27;20849;-85
2022/01/17 00:55:08;;;;;;;13.90;2.33;;;;;;;;;;5149081;27;20481;-84
2022/01/17 00:57:34;;;;;;;11.45;1.30;;;;;;;;;;5150506;27;20218;-84
2022/01/17 01:00:02;;;;;;;12.93;1.88;;;;;;;;;;5122492;27;20126;-85
2022/01/17 01:02:31;;;;;;;12.38;1.63;;;;;;;;;;5132103;27;20051;-85
2022/01/17 01:04:57;;;;;;;14.23;2.17;;;;;;;;;;5124498;27;20057;-85
2022/01/17 01:07:24;;;;;;;9.02;1.90;;;;;;;;;;5126994;27;20047;-85
2022/01/17 01:10:05;;;;;;;11.07;1.88;;;;;;;;;;5132554;27;21374;-84
2022/01/17 01:12:31;;;;;;;;;;;;;;;;;;5131880;27;20690;-85
2022/01/17 01:14:58;;;;;;;12.18;1.67;;;;;;;;;;5128182;27;44995;-85
2022/01/17 01:17:34;;;;;;;15.23;1.35;;;;;;;;;;5120930;27;20227;-85
2022/01/17 01:28:16;;;;;;;15.43;1.65;;;;;;;;;;5149427;27;20089;-81
2022/01/17 01:30:46;;;;;;;10.80;1.65;;;;;;;;;;5147215;27;20050;-83
2022/01/17 01:33:19;;;;;;;10.60;1.83;;;;;;;;;;5147810;27;20071;-84
2022/01/17 01:35:47;;;;;;;13.98;2.08;;;;;;;;;;5129367;27;20059;-84
2022/01/17 01:38:14;;;;;;;12.30;1.67;;;;;;;;;;5131716;27;20128;-84
2022/01/17 01:40:40;;;;;;;10.55;1.30;;;;;;;;;;5131861;27;20051;-81
2022/01/17 01:43:07;;;;;;;13.25;1.70;;;;;;;;;;5125049;27;20051;-84
2022/01/17 01:45:33;;;;;;;14.60;1.73;;;;;;;;;;5123902;27;20081;-84
2022/01/17 01:48:00;;;;;;;16.58;1.27;;;;;;;;;;5131253;27;20075;-84
2022/01/17 01:50:26;;;;;;;10.73;1.50;;;;;;;;;;5130962;27;20146;-84
2022/01/17 01:52:52;;;;;;;11.73;1.35;;;;;;;;;;5130754;27;20097;-84
2022/01/17 01:55:21;;;;;;;13.23;1.98;;;;;;;;;;5145990;27;20051;-81
2022/01/17 01:57:48;;;;;;;12.52;1.40;;;;;;;;;;5131564;27;20051;-84
2022/01/17 02:00:15;;;;;;;13.80;1.52;;;;;;;;;;5150213;27;20104;-84
2022/01/17 02:02:41;;;;;;;14.07;1.50;;;;;;;;;;5128888;27;20562;-83
2022/01/17 02:05:08;;;;;;;14.35;1.98;;;;;;;;;;5143739;27;20455;-84
2022/01/17 02:07:34;;;;;;;10.45;1.80;;;;;;;;;;5126051;27;20109;-83
2022/01/17 02:10:02;;;;;;;12.57;1.58;;;;;;;;;;5115623;27;20055;-84
2022/01/17 02:12:29;;;;;;;10.85;1.63;;;;;;;;;;5130246;27;20062;-84
2022/01/17 02:14:56;;;;;;;20.27;2.03;;;;;;;;;;5130922;27;20079;-84
2022/01/17 02:17:24;;;;;;;11.73;1.80;;;;;;;;;;5149448;27;20051;-81
2022/01/17 02:20:03;;;;;;;12.25;1.70;;;;;;;;;;5131008;27;20056;-83
2022/01/17 02:22:30;;;;;;;14.73;2.28;;;;;;;;;;5143805;27;20066;-84
2022/01/17 02:24:56;;;;;;;14.27;1.83;;;;;;;;;;5123159;27;20893;-82
2022/01/17 02:27:23;;;;;;;8.25;1.60;;;;;;;;;;5148361;27;20085;-83
2022/01/17 02:29:49;;;;;;;15.02;1.48;;;;;;;;;;5135868;27;20148;-84
2022/01/17 02:32:15;;;;;;;11.63;1.60;;;;;;;;;;5134109;27;20063;-84
2022/01/17 02:34:43;;;;;;;18.92;2.03;;;;;;;;;;5144657;27;20048;-83
2022/01/17 02:37:10;;;;;;;8.65;1.65;;;;;;;;;;5128762;27;20089;-82
2022/01/17 02:39:37;;;;;;;15.38;1.73;;;;;;;;;;5136418;27;20055;-83
2022/01/17 02:42:04;;;;;;;12.98;2.28;;;;;;;;;;5137431;27;20039;-81
2022/01/17 02:44:31;;;;;;;10.95;1.55;;;;;;;;;;5133156;27;20055;-83
2022/01/17 02:47:00;;;;;;;15.38;1.50;;;;;;;;;;5138979;27;20104;-81
2022/01/17 02:49:26;;;;;;;11.45;1.80;;;;;;;;;;5122687;27;20079;-83
2022/01/17 02:51:54;;;;;;;10.98;1.35;;;;;;;;;;5149101;27;20043;-84
2022/01/17 02:54:20;;;;;;;8.80;1.75;;;;;;;;;;5127736;27;20086;-83
2022/01/17 02:56:46;;;;;;;9.82;1.33;;;;;;;;;;5124228;27;20087;-83
2022/01/17 02:59:13;;;;;;;14.13;1.73;;;;;;;;;;5130672;27;20570;-84
2022/01/17 03:01:39;;;;;;;11.77;1.67;;;;;;;;;;5152166;27;20047;-83
2022/01/17 03:04:06;;;;;;;12.80;1.42;;;;;;;;;;5148741;27;20062;-83
2022/01/17 03:06:32;;;;;;;13.50;1.55;;;;;;;;;;5133617;27;20100;-84
2022/01/17 03:08:58;;;;;;;11.45;1.50;;;;;;;;;;5151107;27;20514;-84
2022/01/17 03:11:27;;;;;;;8.90;1.13;;;;;;;;;;5149836;27;20578;-81
2022/01/17 03:13:53;;;;;;;19.13;1.90;;;;;;;;;;5149497;27;20043;-84
2022/01/17 03:16:28;;;;;;;9.27;1.50;;;;;;;;;;5126168;27;20096;-84
2022/01/17 03:18:56;;;;;;;15.32;2.60;;;;;;;;;;5125525;27;20075;-81
2022/01/17 03:21:23;;;;;;;11.23;1.35;;;;;;;;;;5127736;27;20055;-84
2022/01/17 03:23:50;;;;;;;12.75;1.98;;;;;;;;;;5133310;27;20140;-83
2022/01/17 03:26:16;;;;;;;12.60;1.80;;;;;;;;;;5147305;27;20047;-83
2022/01/17 03:28:43;;;;;;;10.48;1.33;;;;;;;;;;5148570;27;20086;-84
2022/01/17 03:31:10;;;;;;;18.48;2.00;;;;;;;;;;5146300;27;20058;-84
2022/01/17 03:33:37;;;;;;;11.32;1.45;;;;;;;;;;5147186;27;20567;-84
2022/01/17 03:36:04;;;;;;;10.32;1.40;;;;;;;;;;5120926;27;20121;-84
2022/01/17 03:38:33;;;;;;;13.50;1.60;;;;;;;;;;5127477;27;20087;-82
2022/01/17 03:41:01;;;;;;;10.77;1.27;;;;;;;;;;5132361;27;20570;-83
2022/01/17 03:43:28;;;;;;;13.35;1.30;;;;;;;;;;5133163;27;20100;-84
2022/01/17 03:45:57;;;;;;;16.52;1.80;;;;;;;;;;5130767;27;20055;-82
2022/01/17 03:48:25;;;;;;;15.35;1.80;;;;;;;;;;5119744;27;20498;-84
2022/01/17 03:50:51;;;;;;;15.98;1.75;;;;;;;;;;5126564;27;20097;-83
2022/01/17 03:53:18;;;;;;;8.20;1.40;;;;;;;;;;5148829;27;20055;-84
2022/01/17 03:55:44;;;;;;;8.93;1.63;;;;;;;;;;5128356;27;20101;-82
2022/01/17 03:58:11;;;;;;;17.67;2.03;;;;;;;;;;5135471;27;20052;-83
2022/01/17 04:00:39;;;;;;;20.20;2.40;;;;;;;;;;5148547;27;20434;-84
2022/01/17 04:03:06;;;;;;;11.55;1.42;;;;;;;;;;5138856;27;20598;-82
2022/01/17 04:05:33;;;;;;;6.63;1.55;;;;;;;;;;5147213;27;20417;-84
2022/01/17 04:08:00;;;;;;;15.80;2.42;;;;;;;;;;5149198;27;20047;-82
2022/01/17 04:10:27;;;;;;;14.48;1.92;;;;;;;;;;5130503;27;20055;-85
2022/01/17 04:13:00;;;;;;;15.63;1.50;;;;;;;;;;5127613;27;20112;-84
2022/01/17 04:15:27;;;;;;;14.57;2.08;;;;;;;;;;5130062;27;20120;-83
2022/01/17 04:17:53;;;;;;;15.50;2.17;;;;;;;;;;5127199;27;20599;-84
2022/01/17 04:20:26;;;;;;;11.00;1.98;;;;;;;;;;5127904;27;20109;-84
2022/01/17 04:22:54;;;;;;;8.52;1.75;;;;;;;;;;5142545;27;20100;-84
2022/01/17 04:25:21;;;;;;;12.85;2.08;;;;;;;;;;5146213;27;20048;-84
2022/01/17 04:27:48;;;;;;;13.77;2.28;;;;;;;;;;5148320;27;20098;-84
2022/01/17 04:30:15;;;;;;;17.60;2.42;;;;;;;;;;5148059;27;20147;-84
2022/01/17 04:32:42;;;;;;;23.45;2.95;;;;;;;;;;5129325;27;20096;-84
2022/01/17 04:35:09;;;;;;;16.45;2.00;;;;;;;;;;5125367;27;20079;-81
2022/01/17 04:37:36;;;;;;;9.18;1.33;;;;;;;;;;5123511;27;20590;-84
2022/01/17 04:40:03;;;;;;;12.63;1.52;;;;;;;;;;5128896;27;20048;-85
2022/01/17 04:42:29;;;;;;;15.70;2.03;;;;;;;;;;5129310;27;20455;-84
2022/01/17 04:45:08;;;;;;;14.15;1.95;;;;;;;;;;5129474;27;20663;-84
2022/01/17 04:47:36;;;;;;;16.80;2.08;;;;;;;;;;5129799;27;21060;-84
2022/01/17 04:50:07;;;;;;;12.75;1.95;;;;;;;;;;5130583;27;20046;-84
2022/01/17 04:52:35;;;;;;;10.68;2.10;;;;;;;;;;5128474;27;20059;-85
2022/01/17 04:55:06;;;;;;;11.93;2.13;;;;;;;;;;5129708;27;20062;-81
2022/01/17 04:57:33;;;;;;;11.52;1.88;;;;;;;;;;5129199;27;20082;-84
2022/01/17 04:59:59;;;;;;;15.00;2.08;;;;;;;;;;5120744;27;20097;-84
2022/01/17 05:02:26;;;;;;;11.07;2.17;;;;;;;;;;5126624;27;20087;-84
2022/01/17 05:04:52;;;;;;;10.73;2.00;;;;;;;;;;5146486;27;20062;-84
2022/01/17 05:07:19;;;;;;;9.43;1.58;;;;;;;;;;5132555;27;20051;-82
2022/01/17 05:09:46;;;;;;;15.00;2.25;;;;;;;;;;5132077;27;20155;-83
2022/01/17 05:12:13;;;;;;;7.95;1.80;;;;;;;;;;5144051;27;20055;-85
2022/01/17 05:14:42;;;;;;;13.77;2.30;;;;;;;;;;5148767;27;20077;-83
2022/01/17 05:19:57;;;;;;;8.70;2.28;;;;;;;;;;5145517;27;20047;-82
2022/01/17 05:22:26;;;;;;;14.00;2.25;;;;;;;;;;5129137;27;20047;-83
2022/01/17 05:24:53;;;;;;;14.52;3.03;;;;;;;;;;5128764;27;20083;-84
2022/01/17 05:27:19;;;;;;;15.48;2.17;;;;;;;;;;5128347;27;20047;-85
2022/01/17 05:29:48;;;;;;;11.60;2.53;;;;;;;;;;5150574;27;20152;-84
2022/01/17 05:32:15;;;;;;;15.40;2.83;;;;;;;;;;5131470;27;20086;-84
2022/01/17 05:34:41;;;;;;;15.15;2.95;;;;;;;;;;5145281;27;20044;-84
2022/01/17 05:37:09;;;;;;;20.23;3.55;;;;;;;;;;5148744;27;20070;-84
2022/01/17 05:39:36;;;;;;;15.43;3.38;;;;;;;;;;5150913;27;20055;-84
2022/01/17 05:42:03;;;;;;;19.08;3.50;;;;;;;;;;5132736;27;20086;-83
2022/01/17 05:44:30;;;;;;;16.98;3.67;;;;;;;;;;5132998;27;20051;-82
2022/01/17 05:46:57;;;;;;;17.13;4.38;;;;;;;;;;5147003;27;20104;-81
2022/01/17 05:49:23;;;;;;;17.38;3.50;;;;;;;;;;5132548;27;20056;-84
2022/01/17 05:51:50;;;;;;;21.40;3.75;;;;;;;;;;5130815;27;20085;-84
2022/01/17 05:54:16;;;;;;;22.85;3.95;;;;;;;;;;5128966;27;20252;-83
2022/01/17 05:56:43;;;;;;;20.80;4.00;;;;;;;;;;5132232;27;20083;-84
2022/01/17 05:59:09;;;;;;;17.83;4.32;;;;;;;;;;5128703;27;20109;-81
2022/01/17 06:01:39;;;;;;;25.70;4.82;;;;;;;;;;5132323;27;20558;-84
2022/01/17 06:04:06;;;;;;;20.45;4.38;;;;;;;;;;5130239;27;20733;-81
2022/01/17 06:06:32;;;;;;;18.58;4.57;;;;;;;;;;5128096;27;20478;-83
2022/01/17 06:08:58;;;;;;;17.63;4.40;;;;;;;;;;5148995;27;20112;-83
2022/01/17 06:11:25;;;;;;;15.43;4.30;;;;;;;;;;5130619;27;20070;-84
2022/01/17 06:13:51;;;;;;;22.45;5.03;;;;;;;;;;5130324;27;20077;-84
2022/01/17 06:16:17;;;;;;;19.38;5.63;;;;;;;;;;5130634;27;20078;-84
2022/01/17 06:18:44;;;;;;;26.27;5.72;;;;;;;;;;5123031;27;20495;-84
2022/01/17 06:21:10;;;;;;;24.30;5.43;;;;;;;;;;5129418;27;20578;-82
2022/01/17 06:23:37;;;;;;;21.67;7.03;;;;;;;;;;5123056;27;20083;-82
2022/01/17 06:26:03;;;;;;;20.05;6.25;;;;;;;;;;5128656;27;20050;-84
2022/01/17 06:28:29;;;;;;;24.38;6.25;;;;;;;;;;5127306;27;20101;-84
2022/01/17 06:30:56;;;;;;;26.42;6.28;;;;;;;;;;5146670;27;20078;-84
2022/01/17 06:33:22;;;;;;;19.60;7.00;;;;;;;;;;5130225;27;20055;-85
2022/01/17 06:35:48;;;;;;;29.02;6.50;;;;;;;;;;5122905;27;20086;-84
2022/01/17 06:38:15;;;;;;;37.97;6.85;;;;;;;;;;5148270;27;20056;-84
2022/01/17 06:40:41;;;;;;;30.00;7.25;;;;;;;;;;5149998;27;20567;-81
2022/01/17 06:43:10;;;;;;;24.13;7.05;;;;;;;;;;5129751;27;20058;-83
2022/01/17 06:45:37;;;;;;;25.50;8.30;;;;;;;;;;5128831;27;20117;-84
2022/01/17 06:48:05;;;;;;;29.25;8.23;;;;;;;;;;5125130;27;20535;-84
2022/01/17 06:50:32;;;;;;;32.78;8.55;;;;;;;;;;5149561;27;20108;-82
2022/01/17 06:52:59;;;;;;;36.95;9.30;;;;;;;;;;5119949;27;20515;-84
2022/01/17 06:55:25;;;;;;;29.63;9.10;;;;;;;;;;5129505;27;20109;-84
2022/01/17 06:57:51;;;;;;;32.03;8.90;;;;;;;;;;5125327;27;20468;-83
2022/01/17 07:00:18;;;;;;;28.38;9.40;;;;;;;;;;5146494;27;20070;-83
2022/01/17 07:02:50;;;;;;;28.25;9.27;;;;;;;;;;5142014;27;20051;-83
2022/01/17 07:05:16;;;;;;;33.03;9.82;;;;;;;;;;5128291;27;20213;-84
2022/01/17 07:07:43;;;;;;;34.20;10.27;;;;;;;;;;5130879;27;20215;-84
2022/01/17 07:10:09;;;;;;;41.22;11.02;;;;;;;;;;5130966;27;20051;-84
2022/01/17 07:12:36;;;;;;;41.50;11.07;;;;;;;;;;5124134;27;20090;-85
2022/01/17 07:15:07;;;;;;;30.17;10.10;;;;;;;;;;5126467;27;20055;-85
2022/01/17 07:17:33;;;;;;;45.25;11.88;;;;;;;;;;5121617;27;20067;-84
2022/01/17 07:20:00;;;;;;;36.35;11.15;;;;;;;;;;5125326;27;20214;-82
2022/01/17 07:22:27;;;;;;;47.17;13.48;;;;;;;;;;5128444;27;20059;-83
2022/01/17 07:24:55;;;;;;;38.45;12.02;;;;;;;;;;5148654;27;20449;-84
2022/01/17 07:27:21;;;;;;;46.50;12.77;;;;;;;;;;5148046;27;20131;-84
2022/01/17 07:29:48;;;;;;;43.85;12.68;;;;;;;;;;5127453;27;20489;-85
2022/01/17 07:32:15;;;;;;;43.97;13.27;;;;;;;;;;5147623;27;20078;-85
2022/01/17 07:34:41;;;;;;;41.35;12.98;;;;;;;;;;5142065;27;20109;-84
2022/01/17 07:37:07;;;;;;;38.75;12.90;;;;;;;;;;5128824;27;20078;-84
2022/01/17 07:39:34;;;;;;;45.03;13.05;;;;;;;;;;5147675;27;20108;-84
2022/01/17 07:42:00;;;;;;;38.85;13.27;;;;;;;;;;5146621;27;20939;-84
2022/01/17 07:44:28;;;;;;;45.25;13.73;;;;;;;;;;5130317;27;20090;-84
2022/01/17 07:46:56;;;;;;;42.05;14.50;;;;;;;;;;5117389;27;20054;-84
2022/01/17 07:49:23;;;;;;;47.53;14.32;;;;;;;;;;5146855;27;20055;-83
2022/01/17 07:51:56;;;;;;;41.10;12.55;;;;;;;;;;5136938;27;20090;-83
2022/01/17 07:54:23;;;;;;;40.42;12.20;;;;;;;;;;5127958;27;20116;-84
2022/01/17 07:56:49;;;;;;;41.00;13.23;;;;;;;;;;5131021;27;20125;-83
2022/01/17 07:59:16;;;;;;;38.80;12.68;;;;;;;;;;5129200;27;20043;-83
2022/01/17 08:01:42;;;;;;;38.70;11.43;;;;;;;;;;5129199;27;20132;-84
2022/01/17 08:04:10;;;;;;;40.80;11.32;;;;;;;;;;5124735;27;20065;-84
2022/01/17 08:06:39;;;;;;;37.83;11.50;;;;;;;;;;5130748;27;20043;-82
2022/01/17 08:09:07;;;;;;;33.67;10.95;;;;;;;;;;5124560;27;20052;-85
2022/01/17 08:11:53;;;;;;;27.42;9.98;;;;;;;;;;5125372;27;20047;-84
2022/01/17 08:14:19;;;;;;;33.17;10.45;;;;;;;;;;5132749;27;20558;-84
2022/01/17 08:16:46;;;;;;;31.05;9.32;;;;;;;;;;5147083;27;20565;-84
2022/01/17 08:19:13;;;;;;;29.25;8.40;;;;;;;;;;5124646;27;20556;-83
2022/01/17 08:21:39;;;;;;;26.45;8.50;;;;;;;;;;5133607;27;20131;-84
2022/01/17 08:24:06;;;;;;;28.45;7.60;;;;;;;;;;5138688;27;20047;-84
2022/01/17 08:26:32;;;;;;;28.50;7.85;;;;;;;;;;5125348;27;20147;-84
2022/01/17 08:28:59;;;;;;;27.95;7.95;;;;;;;;;;5149260;27;20082;-85
2022/01/17 08:31:25;;;;;;;29.45;6.72;;;;;;;;;;5129682;27;20093;-83
2022/01/17 08:33:56;;;;;;;32.28;7.32;;;;;;;;;;5110788;27;20058;-84
2022/01/17 08:36:22;;;;;;;22.48;6.53;;;;;;;;;;5133872;27;20051;-84
2022/01/17 08:38:48;;;;;;;27.38;6.45;;;;;;;;;;5152531;27;20185;-84
2022/01/17 08:41:19;;;;;;;21.92;5.85;;;;;;;;;;5135063;27;20087;-84
2022/01/17 08:43:46;;;;;;;28.98;6.13;;;;;;;;;;5133107;27;20051;-83
2022/01/17 08:46:13;;;;;;;19.85;5.60;;;;;;;;;;5136949;27;20108;-83
2022/01/17 08:48:40;;;;;;;20.15;5.47;;;;;;;;;;5141082;27;20142;-84
2022/01/17 08:51:07;;;;;;;29.13;6.40;;;;;;;;;;5175392;27;20062;-83
2022/01/17 08:53:34;;;;;;;19.58;5.03;;;;;;;;;;5158879;27;20924;-82
2022/01/17 08:56:00;;;;;;;18.90;4.90;;;;;;;;;;5147748;27;20069;-83
2022/01/17 08:58:27;;;;;;;21.10;5.57;;;;;;;;;;5139519;27;20062;-83
2022/01/17 09:00:54;;;;;;;19.10;4.22;;;;;;;;;;5156235;27;20098;-83
2022/01/17 09:03:21;;;;;;;16.80;4.40;;;;;;;;;;5150818;27;20124;-83
2022/01/17 09:05:48;;;;;;;23.10;4.82;;;;;;;;;;5133819;27;20032;-83
2022/01/17 09:08:16;;;;;;;23.65;5.35;;;;;;;;;;5126295;27;20060;-83
2022/01/17 09:10:43;;;;;;;24.05;4.60;;;;;;;;;;5133153;27;20043;-83
2022/01/17 09:13:09;;;;;;;25.80;4.82;;;;;;;;;;5141779;27;21061;-83
2022/01/17 09:15:36;;;;;;;19.58;5.38;;;;;;;;;;5130973;27;20074;-83
2022/01/17 09:18:03;;;;;;;16.38;4.20;;;;;;;;;;5159265;27;20051;-84
2022/01/17 09:20:32;;;;;;;24.77;4.93;;;;;;;;;;5156916;27;20096;-83
2022/01/17 09:22:59;;;;;;;26.80;5.28;;;;;;;;;;5135955;27;20051;-83
2022/01/17 09:25:25;;;;;;;24.88;4.20;;;;;;;;;;5119441;27;20099;-83
2022/01/17 09:27:52;;;;;;;20.38;4.57;;;;;;;;;;5155869;27;20698;-83
2022/01/17 09:30:18;;;;;;;22.90;3.80;;;;;;;;;;5155711;27;20065;-83
2022/01/17 09:32:46;;;;;;;31.58;4.60;;;;;;;;;;5141035;27;20589;-83
2022/01/17 09:35:12;;;;;;;19.42;5.03;;;;;;;;;;5138869;27;20055;-83
2022/01/17 09:37:39;;;;;;;25.90;4.03;;;;;;;;;;5132310;27;20104;-84
2022/01/17 09:40:06;;;;;;;20.70;3.92;;;;;;;;;;5158173;27;20516;-83
2022/01/17 09:42:36;;;;;;;25.20;3.80;;;;;;;;;;5134880;27;20489;-83
2022/01/17 09:45:05;;;;;;;18.35;4.15;;;;;;;;;;5138243;27;20051;-83
2022/01/17 09:47:34;;;;;;;21.60;4.03;;;;;;;;;;5135427;27;20048;-83
2022/01/17 09:50:01;;;;;;;22.42;3.33;;;;;;;;;;5133578;27;20111;-83
2022/01/17 09:54:59;;;;;;;;;;;;;;;;;;5151475;27;20055;-83
2022/01/17 09:57:27;;;;;;;20.50;3.53;;;;;;;;;;5120917;27;45589;-83
2022/01/17 09:59:54;;;;;;;21.08;3.42;;;;;;;;;;5123818;27;20090;-83
2022/01/17 10:02:20;;;;;;;25.13;4.00;;;;;;;;;;5133309;27;20652;-83
2022/01/17 10:04:47;;;;;;;23.02;3.95;;;;;;;;;;5152418;27;20067;-82
2022/01/17 10:07:13;;;;;;;18.92;4.25;;;;;;;;;;5127456;27;20058;-83
2022/01/17 10:09:43;;;;;;;17.63;3.28;;;;;;;;;;5151350;27;20097;-83
2022/01/17 10:12:14;;;;;;;22.70;3.58;;;;;;;;;;5149677;27;20059;-83
2022/01/17 10:14:45;;;;;;;26.25;4.10;;;;;;;;;;5135983;27;20055;-83
2022/01/17 10:17:11;;;;;;;;;;;;;;;;;;5131403;27;20113;-84
2022/01/17 10:19:39;;;;;;;23.20;3.88;;;;;;;;;;5123746;27;45944;-83
2022/01/17 10:22:19;;;;;;;25.27;3.92;;;;;;;;;;5153992;27;20585;-83
2022/01/17 10:24:57;;;;;;;22.95;3.45;;;;;;;;;;5133793;27;20053;-82
2022/01/17 10:27:50;;;;;;;23.67;3.30;;;;;;;;;;5149774;27;20051;-82
2022/01/17 10:35:31;;;;;;;29.27;3.30;;;;;;;;;;5126106;27;20104;-82
2022/01/17 10:38:04;;;;;;;21.92;3.67;;;;;;;;;;5135586;27;20181;-81
2022/01/17 10:40:33;;;;;;;21.98;3.35;;;;;;;;;;5131319;27;20151;-82
2022/01/17 10:43:01;;;;;;;16.98;3.38;;;;;;;;;;5155894;27;20109;-82
2022/01/17 10:45:33;;;;;;;18.13;3.28;;;;;;;;;;5134083;27;20056;-82
2022/01/17 10:48:01;;;;;;;29.95;3.92;;;;;;;;;;5125815;27;20108;-81
2022/01/17 10:50:35;;;;;;;19.70;2.65;;;;;;;;;;5129536;27;20089;-82
2022/01/17 10:53:04;;;;;;;22.38;3.85;;;;;;;;;;5130690;27;20040;-82
2022/01/17 10:55:40;;;;;;;17.17;3.65;;;;;;;;;;5147353;27;20094;-82
2022/01/17 10:58:09;;;;;;;24.58;2.97;;;;;;;;;;5135587;27;20112;-81
2022/01/17 11:00:37;;;;;;;21.38;4.72;;;;;;;;;;5149107;27;20051;-82
2022/01/17 11:03:05;;;;;;;27.17;3.42;;;;;;;;;;5147613;27;20149;-81
2022/01/17 11:05:33;;;;;;;23.13;3.67;;;;;;;;;;5132642;27;20065;-82
2022/01/17 11:08:01;;;;;;;26.08;3.67;;;;;;;;;;5131135;27;20055;-81
2022/01/17 11:10:29;;;;;;;19.40;3.10;;;;;;;;;;5121516;27;20124;-82
2022/01/17 11:12:57;;;;;;;18.73;4.07;;;;;;;;;;5120780;27;20109;-82
2022/01/17 11:15:24;;;;;;;21.58;4.18;;;;;;;;;;5153466;27;20108;-82
2022/01/17 11:17:57;;;;;;;20.85;3.53;;;;;;;;;;5154973;27;20568;-82
2022/01/17 11:20:24;;;;;;;19.17;3.30;;;;;;;;;;5152562;27;20108;-82
2022/01/17 11:22:53;;;;;;;23.90;3.15;;;;;;;;;;5154041;27;20096;-82
2022/01/17 11:25:28;;;;;;;15.27;2.53;;;;;;;;;;5136231;27;20077;-82
2022/01/17 11:27:55;;;;;;;21.63;3.50;;;;;;;;;;5129111;27;20043;-81
2022/01/17 11:30:22;;;;;;;16.60;2.85;;;;;;;;;;5135673;27;20086;-82
2022/01/17 11:32:50;;;;;;;20.08;2.67;;;;;;;;;;5134844;27;20062;-82
2022/01/17 11:35:17;;;;;;;17.92;3.10;;;;;;;;;;5130362;27;20051;-80
2022/01/17 11:37:46;;;;;;;21.27;2.85;;;;;;;;;;5144564;27;20047;-82
2022/01/17 11:40:13;;;;;;;18.27;2.85;;;;;;;;;;5121214;27;20084;-82
2022/01/17 11:42:42;;;;;;;20.95;3.22;;;;;;;;;;5141889;27;20947;-81
2022/01/17 11:45:23;;;;;;;13.15;2.70;;;;;;;;;;5141555;27;20851;-82
2022/01/17 11:47:53;;;;;;;18.88;3.15;;;;;;;;;;5154329;27;20069;-81
2022/01/17 11:50:33;;;;;;;20.73;2.97;;;;;;;;;;5134981;27;20058;-81
2022/01/17 11:53:12;;;;;;;20.52;3.20;;;;;;;;;;5152701;27;20055;-79
2022/01/17 11:55:49;;;;;;;20.70;2.70;;;;;;;;;;5136563;27;20054;-80
2022/01/17 11:58:22;;;;;;;26.60;3.83;;;;;;;;;;5117434;27;20491;-81
2022/01/17 12:00:51;;;;;;;15.95;2.83;;;;;;;;;;5133649;27;20051;-82
2022/01/17 12:03:19;;;;;;;22.20;3.00;;;;;;;;;;5124812;27;20112;-79
2022/01/17 12:05:45;;;;;;;18.58;2.65;;;;;;;;;;5125290;27;20089;-81
2022/01/17 12:08:17;;;;;;;20.90;3.42;;;;;;;;;;5131998;27;20051;-81
2022/01/17 12:10:45;;;;;;;23.73;3.47;;;;;;;;;;5135570;27;20662;-81
2022/01/17 12:13:16;;;;;;;28.05;4.90;;;;;;;;;;5153967;27;20109;-82
2022/01/17 12:18:58;;;;;;;22.92;4.07;;;;;;;;;;5151672;27;20055;-82
2022/01/17 12:21:32;;;;;;;20.40;3.30;;;;;;;;;;5135954;27;20135;-82
2022/01/17 12:24:17;;;;;;;15.38;3.25;;;;;;;;;;5154030;27;20098;-83
2022/01/17 12:27:02;;;;;;;20.52;3.08;;;;;;;;;;5135100;27;20062;-80
2022/01/17 12:29:35;;;;;;;15.75;3.50;;;;;;;;;;5133993;27;20553;-82
2022/01/17 12:32:01;;;;;;;19.05;2.80;;;;;;;;;;5127557;27;20051;-79
2022/01/17 12:34:28;;;;;;;22.40;3.17;;;;;;;;;;5124364;27;20052;-81
2022/01/17 12:36:58;;;;;;;21.92;2.88;;;;;;;;;;5135767;27;20570;-80
2022/01/17 12:39:26;;;;;;;16.83;2.88;;;;;;;;;;5134233;27;20055;-81
2022/01/17 12:41:57;;;;;;;26.38;3.92;;;;;;;;;;5133807;27;20082;-81
2022/01/17 12:44:25;;;;;;;23.42;2.67;;;;;;;;;;5118673;27;20108;-78
2022/01/17 12:46:53;;;;;;;16.48;3.08;;;;;;;;;;5129721;27;20082;-82
2022/01/17 12:49:20;;;;;;;18.95;3.30;;;;;;;;;;5153243;27;20083;-80
2022/01/17 12:51:48;;;;;;;18.95;3.38;;;;;;;;;;5150304;27;20136;-80
2022/01/17 12:54:16;;;;;;;19.10;2.83;;;;;;;;;;5134597;27;20104;-81
2022/01/17 12:56:47;;;;;;;20.40;3.25;;;;;;;;;;5137533;27;20081;-79
2022/01/17 12:59:13;;;;;;;;;;;;;;;;;;5129835;27;20047;-80
2022/01/17 13:01:42;;;;;;;19.23;2.90;;;;;;;;;;5130922;27;46464;-80
2022/01/17 13:04:11;;;;;;;19.42;2.78;;;;;;;;;;5129070;27;20051;-81
2022/01/17 13:06:39;;;;;;;18.55;2.75;;;;;;;;;;5152581;27;20077;-80
2022/01/17 13:09:12;;;;;;;16.75;2.55;;;;;;;;;;5149885;27;20890;-79
2022/01/17 13:11:40;;;;;;;21.50;3.25;;;;;;;;;;5131530;27;20039;-81
2022/01/17 13:14:06;;;;;;;23.77;3.00;;;;;;;;;;5133318;27;20047;-80
2022/01/17 13:16:36;;;;;;;20.73;3.00;;;;;;;;;;5148817;27;20082;-80
2022/01/17 13:19:03;;;;;;;20.08;2.88;;;;;;;;;;5140976;27;20048;-80
2022/01/17 13:21:30;;;;;;;20.63;3.42;;;;;;;;;;5137299;27;20075;-80
2022/01/17 13:24:14;;;;;;;24.70;3.47;;;;;;;;;;5138054;27;20065;-79
2022/01/17 13:26:49;;;;;;;19.00;2.38;;;;;;;;;;5137669;27;20090;-80
2022/01/17 13:29:16;;;;;;;20.08;3.42;;;;;;;;;;5158019;27;20766;-80
2022/01/17 13:31:43;;;;;;;22.95;2.97;;;;;;;;;;5139142;27;20086;-80
2022/01/17 13:34:24;;;;;;;18.92;2.97;;;;;;;;;;5137895;27;20054;-80
2022/01/17 13:36:52;;;;;;;24.50;2.38;;;;;;;;;;5137771;27;20104;-80
2022/01/17 13:39:28;;;;;;;18.08;2.35;;;;;;;;;;5139122;27;20047;-80
2022/01/17 13:41:58;;;;;;;23.85;3.10;;;;;;;;;;5157963;27;20051;-82
2022/01/17 13:44:31;;;;;;;23.25;3.38;;;;;;;;;;5141088;27;20379;-80
2022/01/17 13:46:59;;;;;;;25.73;4.43;;;;;;;;;;5139413;27;20059;-82
2022/01/17 13:49:27;;;;;;;27.63;3.75;;;;;;;;;;5145609;27;20054;-80
2022/01/17 13:51:55;;;;;;;32.00;3.28;;;;;;;;;;5127789;27;20055;-79
2022/01/17 13:54:22;;;;;;;19.35;3.55;;;;;;;;;;5127056;27;20083;-79
2022/01/17 13:56:49;;;;;;;22.65;3.08;;;;;;;;;;5137104;27;20055;-83
2022/01/17 13:59:16;;;;;;;19.65;3.10;;;;;;;;;;5133748;27;20052;-83
2022/01/17 14:01:45;;;;;;;25.27;3.20;;;;;;;;;;5130109;27;20077;-82
2022/01/17 14:04:30;;;;;;;18.42;2.35;;;;;;;;;;5133973;27;20082;-83
2022/01/17 14:06:57;;;;;;;21.92;2.90;;;;;;;;;;5130723;27;20058;-81
2022/01/17 14:09:36;;;;;;;21.63;3.17;;;;;;;;;;5121439;27;20048;-83
2022/01/17 14:12:16;;;;;;;30.38;3.30;;;;;;;;;;5143082;27;20054;-81
2022/01/17 14:14:49;;;;;;;25.45;3.72;;;;;;;;;;5125568;27;20051;-80
2022/01/17 14:17:28;;;;;;;19.05;3.10;;;;;;;;;;5130713;27;20048;-83
2022/01/17 14:20:11;;;;;;;25.23;3.97;;;;;;;;;;5134305;27;20844;-80
2022/01/17 14:22:48;;;;;;;20.63;3.40;;;;;;;;;;5135651;27;20055;-82
2022/01/17 14:25:22;;;;;;;23.05;3.30;;;;;;;;;;5138365;27;21376;-83
2022/01/17 14:27:56;;;;;;;28.45;4.00;;;;;;;;;;5130589;27;20051;-83
2022/01/17 14:30:52;;;;;;;23.23;3.58;;;;;;;;;;5130208;27;20069;-82
2022/01/17 14:33:28;;;;;;;17.33;2.60;;;;;;;;;;5131412;27;20138;-80
2022/01/17 14:36:05;;;;;;;20.10;2.92;;;;;;;;;;5115505;27;20054;-83
2022/01/17 14:38:45;;;;;;;29.83;2.95;;;;;;;;;;5136876;27;20059;-79
2022/01/17 14:41:34;;;;;;;24.50;3.67;;;;;;;;;;5124526;27;20150;-83
2022/01/17 14:44:08;;;;;;;26.75;4.05;;;;;;;;;;5126074;27;20063;-83
2022/01/17 14:46:46;;;;;;;26.17;4.05;;;;;;;;;;5123638;27;20052;-82
2022/01/17 14:49:33;;;;;;;25.17;3.28;;;;;;;;;;5134406;27;20807;-83
2022/01/17 14:52:09;;;;;;;30.38;3.50;;;;;;;;;;5146052;27;20067;-82
2022/01/17 14:54:53;;;;;;;;;;;;;;;;;;5135530;27;20104;-82
2022/01/17 15:00:26;;;;;;;23.42;4.03;;;;;;;;;;5143341;27;20054;-80
2022/01/17 15:03:09;;;;;;;27.27;3.17;;;;;;;;;;5127637;27;20059;-82
2022/01/17 15:05:37;;;;;;;31.13;3.88;;;;;;;;;;5141608;27;20884;-83